Greenfield Township, Maine
Current Conditions -  °F | °C
As of 9:53 AM on Saturday 20 Dec 2014 (Local Time) from KBGR Reporting Station
Overcast Overcast  
Wind Chill:   Ceiling: 1000
Heat Index: 20°   Visibility: 10mi
Dew Point: 16°   Wind: 10mph
Humidity: 85%   Direction: 20°NNE
Pressure: 30.36"   Gusts: NA
Location:  45.0802°N, 68.5883°W
Report Text: KBGR 201453Z 02009KT 10SM OVC010 M07/M09 A3036 RMK AO2 SLP285 T10671089 51016
Loading
Personal Weather Stations






























Interactive Weather Map New forecast layout! Learn more

10-Day Weather Forecast

Advertisements
Track Severe Weather on mobile